createdAt,value
2023-04-09T00:02:06.695Z,15.23
2023-04-09T00:04:53.920Z,15.63
2023-04-09T00:07:42.591Z,14.85
2023-04-09T00:10:30.947Z,15.32
2023-04-09T00:13:22.764Z,13.73
2023-04-09T00:16:18.906Z,15.60
2023-04-09T00:19:06.083Z,14.95
2023-04-09T00:21:53.148Z,15.02
2023-04-09T00:24:40.651Z,16.30
2023-04-09T00:27:27.684Z,15.30
2023-04-09T00:30:14.773Z,15.10
2023-04-09T00:33:01.876Z,15.10
2023-04-09T00:35:49.001Z,15.38
2023-04-09T00:38:36.284Z,16.05
2023-04-09T00:41:23.601Z,15.85
2023-04-09T00:44:10.751Z,15.55
2023-04-09T00:46:59.660Z,15.98
2023-04-09T00:49:46.889Z,16.35
2023-04-09T00:52:34.249Z,15.82
2023-04-09T00:55:22.567Z,16.35
2023-04-09T00:58:09.719Z,16.73
2023-04-09T01:00:56.922Z,16.85
2023-04-09T01:03:44.336Z,16.42
2023-04-09T01:07:03.441Z,17.08
2023-04-09T01:10:36.017Z,17.50
2023-04-09T01:13:31.881Z,16.92
2023-04-09T01:16:22.764Z,17.80
2023-04-09T01:19:27.384Z,16.15
2023-04-09T01:22:39.451Z,16.05
2023-04-09T01:25:50.644Z,17.42
2023-04-09T01:28:44.325Z,16.42
2023-04-09T01:31:36.893Z,17.20
2023-04-09T01:34:25.624Z,16.10
2023-04-09T01:37:14.468Z,16.77
2023-04-09T01:40:02.239Z,15.70
2023-04-09T01:42:51.290Z,15.93
2023-04-09T01:45:39.076Z,16.77
2023-04-09T01:48:27.364Z,17.40
2023-04-09T01:51:15.812Z,16.08
2023-04-09T01:54:04.093Z,17.17
2023-04-09T01:56:51.246Z,17.20
2023-04-09T01:59:38.302Z,17.67
2023-04-09T02:02:37.405Z,16.38
2023-04-09T02:05:28.294Z,17.73
2023-04-09T02:08:21.133Z,17.85
2023-04-09T02:11:11.132Z,18.70
2023-04-09T02:13:58.527Z,17.45
2023-04-09T02:16:46.704Z,17.83
2023-04-09T02:19:45.009Z,18.23
2023-04-09T02:22:32.154Z,17.08
2023-04-09T02:25:19.547Z,17.63
2023-04-09T02:28:06.708Z,16.90
2023-04-09T02:30:53.846Z,16.55
2023-04-09T02:33:41.070Z,16.65
2023-04-09T02:36:28.205Z,16.73
2023-04-09T02:39:15.616Z,15.82
2023-04-09T02:42:02.841Z,16.23
2023-04-09T02:44:49.934Z,16.27
2023-04-09T02:47:37.196Z,16.42
2023-04-09T02:50:24.409Z,16.02
2023-04-09T02:53:11.620Z,15.93
2023-04-09T02:55:58.721Z,15.60
2023-04-09T02:58:45.878Z,14.93
2023-04-09T03:01:33.118Z,15.52
2023-04-09T03:04:20.340Z,15.18
2023-04-09T03:07:07.543Z,15.60
2023-04-09T03:09:54.684Z,13.80
2023-04-09T03:12:44.598Z,14.98
2023-04-09T03:15:31.728Z,14.50
2023-04-09T03:18:19.101Z,15.27
2023-04-09T03:21:07.739Z,16.05
2023-04-09T03:23:54.820Z,15.10
2023-04-09T03:26:42.044Z,15.45
2023-04-09T03:29:29.161Z,14.65
2023-04-09T03:32:17.892Z,15.35
2023-04-09T03:35:06.392Z,15.27
2023-04-09T03:37:53.696Z,15.02
2023-04-09T03:40:42.216Z,15.38
2023-04-09T03:43:29.396Z,16.17
2023-04-09T03:46:18.052Z,15.95
2023-04-09T03:49:05.590Z,16.85
2023-04-09T03:51:55.955Z,16.35
2023-04-09T03:54:43.775Z,16.02
2023-04-09T03:57:30.884Z,17.75
2023-04-09T04:00:18.108Z,15.88
2023-04-09T04:03:05.721Z,16.55
2023-04-09T04:05:53.159Z,15.30
2023-04-09T04:08:40.304Z,15.25
2023-04-09T04:11:27.424Z,16.63
2023-04-09T04:14:14.634Z,16.83
2023-04-09T04:17:01.716Z,17.17
2023-04-09T04:19:55.533Z,17.10
2023-04-09T04:22:42.611Z,17.35
2023-04-09T04:25:29.840Z,16.80
2023-04-09T04:28:17.113Z,18.00
2023-04-09T04:31:11.619Z,19.00
2023-04-09T04:33:58.756Z,17.98
2023-04-09T04:36:45.863Z,17.85
2023-04-09T04:39:33.178Z,17.63
2023-04-09T04:42:20.274Z,17.58
2023-04-09T04:45:08.189Z,17.48
2023-04-09T04:47:55.395Z,19.60
2023-04-09T04:50:42.775Z,19.55
2023-04-09T04:53:30.039Z,18.00
2023-04-09T04:56:17.190Z,19.17
2023-04-09T04:59:04.308Z,17.95
2023-04-09T05:01:51.486Z,19.52
2023-04-09T05:04:40.646Z,20.05
2023-04-09T05:07:27.901Z,20.93
2023-04-09T05:10:15.150Z,21.10
2023-04-09T05:13:02.371Z,21.83
2023-04-09T05:15:49.586Z,20.50
2023-04-09T05:18:38.881Z,19.88
2023-04-09T05:21:26.580Z,22.13
2023-04-09T05:24:13.807Z,21.15
2023-04-09T05:27:01.498Z,20.17
2023-04-09T05:29:48.726Z,20.17
2023-04-09T05:32:36.217Z,21.85
2023-04-09T05:35:30.376Z,22.27
2023-04-09T05:38:17.492Z,21.30
2023-04-09T05:41:04.805Z,20.10
2023-04-09T05:43:52.184Z,20.30
2023-04-09T05:46:39.570Z,22.58
2023-04-09T05:49:26.784Z,21.00
2023-04-09T05:52:28.089Z,21.67
2023-04-09T05:55:16.295Z,20.42
2023-04-09T05:58:11.266Z,20.75
2023-04-09T06:01:07.509Z,20.60
2023-04-09T06:04:08.580Z,22.17
2023-04-09T06:06:59.472Z,20.50
2023-04-09T06:09:53.447Z,21.25
2023-04-09T06:13:13.484Z,20.90
2023-04-09T06:16:12.110Z,20.45
2023-04-09T06:19:12.702Z,20.85
2023-04-09T06:22:08.757Z,20.90
2023-04-09T06:24:58.471Z,21.23
2023-04-09T06:27:57.457Z,19.92
2023-04-09T06:30:48.812Z,19.15
2023-04-09T06:33:42.338Z,19.40
2023-04-09T06:36:37.253Z,19.30
2023-04-09T06:39:24.369Z,19.67
2023-04-09T06:42:11.382Z,18.48
2023-04-09T06:44:58.435Z,18.90
2023-04-09T06:47:45.495Z,17.67
2023-04-09T06:50:32.671Z,18.10
2023-04-09T06:53:20.214Z,19.48
2023-04-09T06:56:08.526Z,18.88
2023-04-09T06:58:55.568Z,20.50
2023-04-09T07:01:43.336Z,18.75
2023-04-09T07:04:30.589Z,17.98
2023-04-09T07:07:17.954Z,18.63
2023-04-09T07:10:06.482Z,17.70
2023-04-09T07:12:53.522Z,18.10
2023-04-09T07:15:42.444Z,17.48
2023-04-09T07:18:31.245Z,18.47
2023-04-09T07:21:18.300Z,17.27
2023-04-09T07:24:05.916Z,17.33
2023-04-09T07:26:53.965Z,16.70
2023-04-09T07:29:44.750Z,17.00
2023-04-09T07:32:32.262Z,16.15
2023-04-09T07:35:19.540Z,17.13
2023-04-09T07:38:06.517Z,16.73
2023-04-09T07:40:53.558Z,15.65
2023-04-09T07:43:41.618Z,16.58
2023-04-09T07:46:28.701Z,16.20
2023-04-09T07:49:17.403Z,16.38
2023-04-09T07:52:05.739Z,16.50
2023-04-09T07:54:53.013Z,17.98
2023-04-09T07:57:40.078Z,17.42
2023-04-09T08:00:27.094Z,16.50
2023-04-09T08:03:14.387Z,16.77
2023-04-09T08:06:02.117Z,16.85
2023-04-09T08:08:49.159Z,16.95
2023-04-09T08:11:36.186Z,16.05
2023-04-09T08:14:23.307Z,16.45
2023-04-09T08:17:10.284Z,16.35
2023-04-09T08:19:57.417Z,16.10
2023-04-09T08:22:45.443Z,17.10
2023-04-09T08:25:32.454Z,17.25
2023-04-09T08:28:19.520Z,17.30
2023-04-09T08:31:06.657Z,18.10
2023-04-09T08:33:53.695Z,17.88
2023-04-09T08:36:41.052Z,17.80
2023-04-09T08:39:28.132Z,19.05
2023-04-09T08:42:16.239Z,18.00
2023-04-09T08:45:05.529Z,17.90
2023-04-09T08:47:53.137Z,17.10
2023-04-09T08:50:40.547Z,18.40
2023-04-09T08:53:28.115Z,17.60
2023-04-09T08:56:15.934Z,17.15
2023-04-09T08:59:02.970Z,17.77
2023-04-09T09:02:06.610Z,16.63
2023-04-09T09:04:55.316Z,17.00
2023-04-09T09:07:53.967Z,17.25
2023-04-09T09:10:44.007Z,16.48
2023-04-09T09:16:18.584Z,17.95
2023-04-09T09:19:06.642Z,17.83
2023-04-09T09:22:01.874Z,18.83
2023-04-09T09:24:51.403Z,17.80
2023-04-09T09:27:40.649Z,18.02
2023-04-09T09:30:27.874Z,18.65
2023-04-09T09:33:15.026Z,18.25
2023-04-09T09:36:03.987Z,16.73
2023-04-09T09:38:56.370Z,17.50
2023-04-09T09:41:45.094Z,17.08
2023-04-09T09:44:33.697Z,17.27
2023-04-09T09:47:21.753Z,17.48
2023-04-09T09:50:09.400Z,16.65
2023-04-09T09:53:03.702Z,17.13
2023-04-09T09:55:53.834Z,18.70
2023-04-09T09:58:54.669Z,18.38
2023-04-09T10:01:44.614Z,17.90
2023-04-09T10:04:38.315Z,18.85
2023-04-09T10:07:25.781Z,19.33
2023-04-09T10:10:13.006Z,20.10
2023-04-09T10:13:00.822Z,17.02
2023-04-09T10:15:48.860Z,18.52
2023-04-09T10:18:36.860Z,18.33
2023-04-09T10:21:57.938Z,18.55
2023-04-09T10:24:45.866Z,17.75
2023-04-09T10:27:32.878Z,18.95
2023-04-09T10:30:36.818Z,17.80
2023-04-09T10:33:29.071Z,16.77
2023-04-09T10:36:19.339Z,16.75
2023-04-09T10:39:13.868Z,18.10
2023-04-09T10:42:09.061Z,18.67
2023-04-09T10:45:09.226Z,17.77
2023-04-09T10:47:56.644Z,17.85
2023-04-09T10:50:44.799Z,17.40
2023-04-09T10:53:32.648Z,17.33
2023-04-09T10:56:19.641Z,18.63
2023-04-09T10:59:06.901Z,16.25
2023-04-09T11:01:55.069Z,15.55
2023-04-09T11:04:48.260Z,15.90
2023-04-09T11:07:40.493Z,15.30
2023-04-09T11:10:28.551Z,15.48
2023-04-09T11:13:17.355Z,15.82
2023-04-09T11:16:07.344Z,15.57
2023-04-09T11:18:56.305Z,14.80
2023-04-09T11:21:46.528Z,15.40
2023-04-09T11:24:43.688Z,14.20
2023-04-09T11:27:30.809Z,16.45
2023-04-09T11:30:18.237Z,15.90
2023-04-09T11:33:07.212Z,17.38
2023-04-09T11:35:54.332Z,16.48
2023-04-09T11:38:41.542Z,16.20
2023-04-09T11:41:38.788Z,16.98
2023-04-09T11:44:25.945Z,15.45
2023-04-09T11:47:19.257Z,15.73
2023-04-09T11:50:08.368Z,15.27
2023-04-09T11:52:55.679Z,16.33
2023-04-09T11:55:42.923Z,15.80
2023-04-09T11:58:29.931Z,16.75
2023-04-09T12:01:17.240Z,15.98
2023-04-09T12:04:05.933Z,13.55
2023-04-09T12:07:02.342Z,14.27
2023-04-09T12:09:49.483Z,14.05
2023-04-09T12:12:47.977Z,13.88
2023-04-09T12:15:37.201Z,13.65
2023-04-09T12:18:24.885Z,13.18
2023-04-09T12:21:11.954Z,15.77
2023-04-09T12:23:59.013Z,15.45
2023-04-09T12:26:47.193Z,15.45
2023-04-09T12:29:34.323Z,14.73
2023-04-09T12:32:21.554Z,14.77
2023-04-09T12:35:08.951Z,13.38
2023-04-09T12:40:22.903Z,14.48
2023-04-09T12:43:09.940Z,14.15
2023-04-09T12:45:57.304Z,13.98
2023-04-09T12:48:44.333Z,13.88
2023-04-09T12:51:31.416Z,14.05
2023-04-09T12:54:18.439Z,14.57
2023-04-09T12:57:05.962Z,14.20
2023-04-09T12:59:56.887Z,14.23
2023-04-09T13:02:44.200Z,14.40
2023-04-09T13:05:35.496Z,14.40
2023-04-09T13:08:22.655Z,14.00
2023-04-09T13:11:09.689Z,13.88
2023-04-09T13:13:56.780Z,14.35
2023-04-09T13:16:43.897Z,13.43
2023-04-09T13:19:31.323Z,13.38
2023-04-09T13:22:19.027Z,13.90
2023-04-09T13:25:06.392Z,14.35
2023-04-09T13:27:53.416Z,13.63
2023-04-09T13:30:40.571Z,13.38
2023-04-09T13:33:27.613Z,13.75
2023-04-09T13:36:14.857Z,13.63
2023-04-09T13:39:08.734Z,14.02
2023-04-09T13:41:56.457Z,13.50
2023-04-09T13:44:46.891Z,13.95
2023-04-09T13:47:37.510Z,13.00
2023-04-09T13:50:24.757Z,12.25
2023-04-09T13:53:12.734Z,11.15
2023-04-09T13:55:59.817Z,13.40
2023-04-09T13:58:47.531Z,12.15
2023-04-09T14:01:34.846Z,12.15
2023-04-09T14:04:22.763Z,12.80
2023-04-09T14:07:09.876Z,13.00
2023-04-09T14:09:57.036Z,11.18
2023-04-09T14:12:44.094Z,10.27
2023-04-09T14:15:31.253Z,9.98
2023-04-09T14:18:18.358Z,8.75
2023-04-09T14:21:08.108Z,10.65
2023-04-09T14:23:56.599Z,9.50
2023-04-09T14:26:43.797Z,9.50
2023-04-09T14:29:30.895Z,9.20
2023-04-09T14:32:18.159Z,8.93
2023-04-09T14:35:06.088Z,9.80
2023-04-09T14:37:53.137Z,9.32
2023-04-09T14:40:40.326Z,9.20
2023-04-09T14:43:27.804Z,16.75
2023-04-09T14:46:14.932Z,12.55
2023-04-09T14:49:02.255Z,39.25
2023-04-09T14:51:49.562Z,12.30
2023-04-09T14:54:37.982Z,13.13
2023-04-09T14:57:25.926Z,11.55
2023-04-09T15:00:13.533Z,11.02
2023-04-09T15:03:00.938Z,22.98
2023-04-09T15:05:48.434Z,32.17
2023-04-09T15:08:35.513Z,34.67
2023-04-09T15:11:23.212Z,20.92
2023-04-09T15:14:10.430Z,11.57
2023-04-09T15:16:57.549Z,11.32
2023-04-09T15:19:44.597Z,11.18
2023-04-09T15:22:31.718Z,10.98
2023-04-09T15:25:18.794Z,12.32
2023-04-09T15:28:06.874Z,11.20
2023-04-09T15:30:55.032Z,10.55
2023-04-09T15:33:47.066Z,15.20
2023-04-09T15:36:34.159Z,11.95
2023-04-09T15:39:24.610Z,10.90
2023-04-09T15:42:12.853Z,11.27
2023-04-09T15:47:48.723Z,11.70
2023-04-09T15:50:35.853Z,12.05
2023-04-09T15:53:26.724Z,16.17
2023-04-09T15:56:17.009Z,16.50
2023-04-09T15:59:05.444Z,18.20
2023-04-09T16:01:53.168Z,13.65
2023-04-09T16:04:40.581Z,13.13
2023-04-09T16:07:27.786Z,12.73
2023-04-09T16:10:14.816Z,12.57
2023-04-09T16:13:03.233Z,12.05
2023-04-09T16:15:51.247Z,12.80
2023-04-09T16:18:38.452Z,11.48
2023-04-09T16:21:25.975Z,11.82
2023-04-09T16:24:14.131Z,11.88
2023-04-09T16:27:01.671Z,11.90
2023-04-09T16:29:48.783Z,11.90
2023-04-09T16:32:35.958Z,14.02
2023-04-09T16:35:23.107Z,10.82
2023-04-09T16:38:10.402Z,12.90
2023-04-09T16:40:57.560Z,10.32
2023-04-09T16:43:46.698Z,11.63
2023-04-09T16:46:33.769Z,9.17
2023-04-09T16:49:20.846Z,9.50
2023-04-09T16:52:08.004Z,9.18
2023-04-09T16:54:55.572Z,9.45
2023-04-09T16:57:43.021Z,9.05
2023-04-09T17:00:30.057Z,8.70
2023-04-09T17:03:17.256Z,9.50
2023-04-09T17:06:05.027Z,9.55
2023-04-09T17:08:52.373Z,10.43
2023-04-09T17:11:39.674Z,9.82
2023-04-09T17:14:27.609Z,9.35
2023-04-09T17:17:14.671Z,10.45
2023-04-09T17:20:01.935Z,9.98
2023-04-09T17:22:49.020Z,10.93
2023-04-09T17:25:36.489Z,10.40
2023-04-09T17:28:23.631Z,10.15
2023-04-09T17:31:16.161Z,11.18
2023-04-09T17:34:03.658Z,12.27
2023-04-09T17:36:56.564Z,11.32
2023-04-09T17:39:43.565Z,11.48
2023-04-09T17:42:31.341Z,13.68
2023-04-09T17:45:18.379Z,12.75
2023-04-09T17:48:05.717Z,13.13
2023-04-09T17:50:52.772Z,13.05
2023-04-09T17:53:39.822Z,12.57
2023-04-09T17:56:27.268Z,12.95
2023-04-09T17:59:14.375Z,14.00
2023-04-09T18:02:02.433Z,12.73
2023-04-09T18:04:49.780Z,14.43
2023-04-09T18:07:36.910Z,13.68
2023-04-09T18:10:24.052Z,15.25
2023-04-09T18:13:11.133Z,15.77
2023-04-09T18:15:58.254Z,15.15
2023-04-09T18:18:45.366Z,14.60
2023-04-09T18:21:32.922Z,17.77
2023-04-09T18:24:20.026Z,14.70
2023-04-09T18:27:07.145Z,14.90
2023-04-09T18:29:54.276Z,13.88
2023-04-09T18:32:41.585Z,14.35
2023-04-09T18:35:28.869Z,14.70
2023-04-09T18:38:16.089Z,13.88
2023-04-09T18:41:03.542Z,14.57
2023-04-09T18:43:50.743Z,14.07
2023-04-09T18:46:37.898Z,14.77
2023-04-09T18:49:27.019Z,14.95
2023-04-09T18:52:14.258Z,14.98
2023-04-09T18:55:01.590Z,13.48
2023-04-09T18:57:48.816Z,14.00
2023-04-09T19:00:36.000Z,13.60
2023-04-09T19:03:23.950Z,13.82
2023-04-09T19:06:18.066Z,13.85
2023-04-09T19:09:05.171Z,15.10
2023-04-09T19:11:52.247Z,14.90
2023-04-09T19:14:40.557Z,13.95
2023-04-09T19:17:28.933Z,14.52
2023-04-09T19:20:20.234Z,13.65
2023-04-09T19:23:07.409Z,13.40
2023-04-09T19:26:08.785Z,13.43
2023-04-09T19:28:56.298Z,13.63
2023-04-09T19:31:43.419Z,13.75
2023-04-09T19:34:30.609Z,12.45
2023-04-09T19:37:19.206Z,13.20
2023-04-09T19:40:07.077Z,13.70
2023-04-09T19:42:54.041Z,12.07
2023-04-09T19:45:42.684Z,13.65
2023-04-09T19:48:29.726Z,13.38
2023-04-09T19:51:20.475Z,14.80
2023-04-09T19:54:09.785Z,13.65
2023-04-09T19:56:57.061Z,13.20
2023-04-09T19:59:44.042Z,13.65
2023-04-09T20:02:32.032Z,14.20
2023-04-09T20:05:21.150Z,15.10
2023-04-09T20:08:11.769Z,14.23
2023-04-09T20:11:01.334Z,14.20
2023-04-09T20:13:48.996Z,13.23
2023-04-09T20:16:36.008Z,13.65
2023-04-09T20:19:23.314Z,14.80
2023-04-09T20:22:10.381Z,14.43
2023-04-09T20:24:58.128Z,13.50
2023-04-09T20:27:45.136Z,13.57
2023-04-09T20:30:32.456Z,13.77
2023-04-09T20:33:19.505Z,13.60
2023-04-09T20:36:15.305Z,12.45
2023-04-09T20:39:02.378Z,13.20
2023-04-09T20:41:49.515Z,12.77
2023-04-09T20:44:36.509Z,13.02
2023-04-09T20:47:23.860Z,14.65
2023-04-09T20:50:11.330Z,14.32
2023-04-09T20:52:59.015Z,15.38
2023-04-09T20:55:46.570Z,13.48
2023-04-09T20:58:33.681Z,13.13
2023-04-09T21:01:22.021Z,13.30
2023-04-09T21:04:09.262Z,13.75
2023-04-09T21:06:56.384Z,14.57
2023-04-09T21:09:43.427Z,15.15
2023-04-09T21:12:32.634Z,14.70
2023-04-09T21:15:20.800Z,15.17
2023-04-09T21:18:07.857Z,14.82
2023-04-09T21:20:54.952Z,15.43
2023-04-09T21:23:42.070Z,14.27
2023-04-09T21:26:33.689Z,14.45
2023-04-09T21:29:25.761Z,12.50
2023-04-09T21:32:12.958Z,13.55
2023-04-09T21:35:00.061Z,12.57
2023-04-09T21:37:48.182Z,12.55
2023-04-09T21:40:35.243Z,12.65
2023-04-09T21:43:22.291Z,12.63
2023-04-09T21:46:09.397Z,13.00
2023-04-09T21:48:56.494Z,12.48
2023-04-09T21:51:45.906Z,13.02
2023-04-09T21:54:33.471Z,12.85
2023-04-09T21:57:20.495Z,12.75
2023-04-09T22:00:10.605Z,12.98
2023-04-09T22:03:01.419Z,12.63
2023-04-09T22:05:48.798Z,12.45
2023-04-09T22:08:40.510Z,13.18
2023-04-09T22:11:36.401Z,11.73
2023-04-09T22:14:23.424Z,13.40
2023-04-09T22:17:10.489Z,11.80
2023-04-09T22:19:57.555Z,12.70
2023-04-09T22:22:44.681Z,12.90
2023-04-09T22:25:35.057Z,12.25
2023-04-09T22:28:22.641Z,13.35
2023-04-09T22:31:09.821Z,11.95
2023-04-09T22:33:58.667Z,12.40
2023-04-09T22:36:45.772Z,12.18
2023-04-09T22:39:32.977Z,13.00
2023-04-09T22:42:20.008Z,13.13
2023-04-09T22:45:08.652Z,13.07
2023-04-09T22:47:55.890Z,12.52
2023-04-09T22:50:44.227Z,12.82
2023-04-09T22:53:31.396Z,13.48
2023-04-09T22:56:19.643Z,12.43
2023-04-09T22:59:06.849Z,13.25
2023-04-09T23:03:33.539Z,13.13
2023-04-09T23:06:20.851Z,14.05
2023-04-09T23:09:08.062Z,12.65
2023-04-09T23:11:55.095Z,13.20
2023-04-09T23:14:42.101Z,12.52
2023-04-09T23:17:29.176Z,12.85
2023-04-09T23:20:17.356Z,11.90
2023-04-09T23:23:04.358Z,11.80
2023-04-09T23:25:51.412Z,11.63
2023-04-09T23:28:38.483Z,13.20
2023-04-09T23:31:25.679Z,12.80
2023-04-09T23:34:13.148Z,12.40
2023-04-09T23:37:00.296Z,10.63
2023-04-09T23:39:47.987Z,11.48
2023-04-09T23:42:35.729Z,11.55
2023-04-09T23:45:23.873Z,12.55
2023-04-09T23:48:11.999Z,12.90
2023-04-09T23:51:00.153Z,11.63
2023-04-09T23:53:47.292Z,12.23
2023-04-09T23:56:47.044Z,13.95
2023-04-09T23:59:36.051Z,14.93
